Latest Weather Observations for Bourke

IDN60801

Issued at 12:32 pm EST Tuesday 7 July 2015 (issued every 30 minutes, with the page automatically refreshed every 10 minutes)

About weather observations | Map of weather stations | Latest weather observations for NSW | Other Formats
Station Details ID: 048245 Name: BOURKE AIRPORT AWS Lat: -30.04 Lon: 145.95 Height: 107.3 m
Data from the previous 72 hours. | See also: Recent months at Bourke
Date/Time
EST
Temp
°C
App
Temp
°C
Dew
Point
Rel
Hum
%
Delta-T
°C
Wind Press
QNH
hPa
Press
MSL
hPa
Rain
since 9 am
mm
Dir
 
Spd
km/h
Gust
km/h
Spd
kts
Gust
kts
07/12:30pm 16.5 14.1 4.5 45 5.7 SSW 6 11 3 6 1021.9 1022.0 0.0
07/12:00pm 15.9 13.4 3.7 44 5.6 SW 6 11 3 6 1022.2 1022.3 0.0
07/11:30am 16.2 14.4 5.5 49 5.1 NNE 4 7 2 4 1022.6 1022.7 0.0
07/11:00am 14.5 12.6 5.0 53 4.5 SW 4 7 2 4 1022.8 1022.9 0.0
07/10:30am 13.8 12.3 6.7 62 3.4 WSW 4 9 2 5 1023.0 1023.1 0.0
07/10:00am 12.7 10.5 6.1 64 3.1 NNE 7 9 4 5 1022.8 1022.9 0.0
07/09:30am 11.3 10.3 5.8 69 2.6 CALM 0 4 0 2 1022.9 1023.0 0.0
07/09:00am 9.3 8.3 5.5 77 1.7 CALM 0 0 0 0 1022.6 1022.7 0.0
07/08:30am 6.7 5.5 4.5 86 1.0 CALM 0 0 0 0 1022.4 1022.5 0.0
07/08:00am 4.0 2.6 3.4 96 0.2 CALM 0 0 0 0 1022.2 1022.3 0.0
07/07:30am 1.8 0.0 1.2 96 0.2 CALM 0 0 0 0 1021.8 1021.9 0.0
07/07:00am 1.5 -0.4 0.8 95 0.3 CALM 0 0 0 0 1021.6 1021.7 0.0
07/06:30am 1.6 -0.3 0.7 94 0.3 CALM 0 0 0 0 1021.2 1021.3 0.0
07/06:00am 2.1 0.3 1.4 95 0.3 CALM 0 0 0 0 1020.8 1020.9 0.0
07/05:30am 2.4 0.7 1.7 95 0.3 CALM 0 0 0 0 1020.4 1020.5 0.0
07/05:00am 2.5 0.7 1.5 93 0.4 CALM 0 0 0 0 1020.3 1020.4 0.0
07/04:30am 2.7 1.0 2.0 95 0.3 CALM 0 0 0 0 1020.3 1020.4 0.0
07/04:00am 2.7 1.0 2.0 95 0.3 CALM 0 0 0 0 1020.2 1020.3 0.0
07/03:30am 2.7 1.0 1.8 94 0.4 CALM 0 0 0 0 1020.1 1020.2 0.0
07/03:00am 3.0 1.3 2.1 94 0.4 CALM 0 0 0 0 1020.2 1020.3 0.0
07/02:30am 3.2 1.6 2.2 93 0.4 CALM 0 4 0 2 1020.2 1020.3 0.0
07/02:00am 3.6 0.9 2.7 94 0.4 SSW 6 7 3 4 1020.3 1020.4 0.0
07/01:30am 3.5 0.8 2.5 93 0.4 SW 6 7 3 4 1020.3 1020.4 0.0
07/01:00am 3.9 1.6 2.9 93 0.4 SW 4 7 2 4 1020.3 1020.4 0.0
07/12:30am 4.1 1.4 2.8 91 0.5 SSW 6 7 3 4 1020.2 1020.3 0.0
07/12:00am 4.2 1.2 2.2 87 0.8 SSW 7 9 4 5 1020.4 1020.5 0.0
 
Date/Time
EST
Temp
°C
App
Temp
°C
Dew
Point
Rel
Hum
%
Delta-T
°C
Wind Press
QNH
hPa
Press
MSL
hPa
Rain
since 9 am
mm
Dir
 
Spd
km/h
Gust
km/h
Spd
kts
Gust
kts
06/11:30pm 5.3 2.4 2.7 83 1.1 SW 7 9 4 5 1020.6 1020.7 0.0
06/11:00pm 5.0 3.5 3.2 88 0.7 CALM 0 0 0 0 1020.6 1020.7 0.0
06/10:30pm 5.0 3.6 3.7 91 0.5 CALM 0 0 0 0 1020.6 1020.7 0.0
06/10:00pm 5.5 3.7 3.5 87 0.8 SW 2 6 1 3 1020.5 1020.6 0.0
06/09:30pm 5.7 3.1 3.4 85 1.0 SW 6 7 3 4 1020.4 1020.5 0.0
06/09:00pm 6.1 3.5 3.4 83 1.1 SW 6 7 3 4 1020.4 1020.5 0.0
06/08:30pm 7.0 4.0 2.1 71 2.0 SW 7 9 4 5 1020.2 1020.3 0.0
06/08:00pm 7.1 4.7 4.1 81 1.3 SW 6 6 3 3 1020.1 1020.2 0.0
06/07:30pm 8.3 6.8 2.8 68 2.3 CALM 0 6 0 3 1019.9 1019.9 0.0
06/07:00pm 8.9 5.9 1.8 61 3.0 SW 7 9 4 5 1019.6 1019.6 0.0
06/06:30pm 10.4 7.6 1.8 55 3.6 SSW 6 7 3 4 1019.5 1019.5 0.0
06/06:00pm 11.1 7.4 2.2 54 3.8 SSW 11 13 6 7 1019.3 1019.3 0.0
06/05:30pm 12.8 9.3 1.5 46 4.9 SSW 9 11 5 6 1018.9 1019.0 0.0
06/05:00pm 14.8 10.9 1.0 39 6.0 SSW 11 13 6 7 1018.6 1018.7 0.0
06/04:30pm 15.6 10.9 1.0 37 6.4 SW 15 20 8 11 1018.5 1018.6 0.0
06/04:00pm 16.2 11.8 2.9 41 6.1 SW 15 22 8 12 1018.4 1018.5 0.0
06/03:30pm 16.5 12.4 2.2 38 6.4 SW 13 20 7 11 1018.2 1018.3 0.0
06/03:00pm 16.3 13.2 3.4 42 5.9 W 9 15 5 8 1017.8 1017.9 0.0
06/02:30pm 15.8 12.9 2.6 41 6.0 WSW 7 11 4 6 1017.8 1017.9 0.0
06/02:00pm 15.6 11.1 2.4 41 5.9 W 15 24 8 13 1018.2 1018.3 0.0
06/01:30pm 15.1 11.4 2.6 43 5.6 WSW 11 17 6 9 1018.3 1018.4 0.0
06/01:00pm 15.0 11.1 3.5 46 5.2 WSW 13 19 7 10 1018.8 1018.9 0.0
06/12:30pm 14.7 11.6 3.5 47 5.1 WSW 9 13 5 7 1019.1 1019.2 0.0
06/12:00pm 14.4 12.1 4.7 52 4.5 SW 6 11 3 6 1019.4 1019.4 0.0
06/11:30am 13.3 10.9 4.5 55 4.1 SW 6 9 3 5 1019.9 1019.9 0.0
06/11:00am 13.3 11.5 3.4 51 4.4 WSW 2 7 1 4 1020.5 1020.6 0.0
06/10:30am 11.5 10.1 3.3 57 3.6 CALM 0 0 0 0 1020.6 1020.7 0.0
06/10:00am 10.4 9.1 3.9 64 2.9 CALM 0 0 0 0 1020.8 1020.9 0.0
06/09:30am 9.4 8.3 5.2 75 1.9 CALM 0 0 0 0 1020.9 1021.0 0.0
06/09:00am 6.8 4.3 4.5 85 1.0 SW 7 9 4 5 1020.8 1020.9 0.0
06/08:30am 5.1 3.8 3.9 92 0.5 CALM 0 0 0 0 1020.6 1020.7 0.0
06/08:00am 2.9 1.3 2.3 96 0.2 CALM 0 6 0 3 1020.4 1020.5 0.0
06/07:30am 1.1 -0.8 0.5 96 0.2 CALM 0 0 0 0 1020.2 1020.3 0.0
06/07:00am 1.2 -1.4 0.8 97 0.1 N 4 6 2 3 1019.9 1019.9 0.0
06/06:30am 1.1 -1.5 0.7 97 0.1 NNE 4 6 2 3 1019.7 1019.7 0.0
06/06:00am 1.0 -2.3 0.4 96 0.2 NNE 7 7 4 4 1019.3 1019.3 0.0
06/05:30am 1.2 -0.7 0.6 96 0.2 CALM 0 0 0 0 1018.9 1019.0 0.0
06/05:00am 1.3 -1.7 0.7 96 0.2 ESE 6 7 3 4 1018.8 1018.9 0.0
06/04:30am 1.8 -1.1 1.2 96 0.2 SSE 6 6 3 3 1019.0 1019.1 0.0
06/04:00am 1.9 -1.0 1.2 95 0.3 SSE 6 7 3 4 1019.3 1019.3 0.0
06/03:30am 2.0 -1.0 1.1 94 0.3 SSE 6 6 3 3 1019.3 1019.3 0.0
06/03:00am 2.5 -0.5 1.9 96 0.2 SE 7 7 4 4 1019.3 1019.3 0.0
06/02:30am 2.4 0.7 1.7 95 0.3 CALM 0 0 0 0 1019.5 1019.5 0.0
06/02:00am 2.6 0.9 1.6 93 0.4 CALM 0 0 0 0 1019.7 1019.7 0.0
06/01:30am 2.8 -0.1 1.6 92 0.5 SE 6 6 3 3 1019.8 1019.8 0.0
06/01:00am 3.6 0.8 2.9 95 0.3 SSE 7 7 4 4 1019.9 1019.9 0.0
06/12:30am 3.4 1.8 2.4 93 0.4 CALM 0 0 0 0 1020.0 1020.0 0.0
06/12:00am 3.9 2.4 2.9 93 0.4 CALM 0 0 0 0 1020.1 1020.2 0.0
 
Date/Time
EST
Temp
°C
App
Temp
°C
Dew
Point
Rel
Hum
%
Delta-T
°C
Wind Press
QNH
hPa
Press
MSL
hPa
Rain
since 9 am
mm
Dir
 
Spd
km/h
Gust
km/h
Spd
kts
Gust
kts
05/11:30pm 4.0 2.5 3.0 93 0.4 CALM 0 0 0 0 1020.2 1020.3 0.0
05/11:00pm 4.1 2.6 2.9 92 0.5 CALM 0 0 0 0 1020.4 1020.5 0.0
05/10:30pm 4.7 3.3 3.5 92 0.5 CALM 0 0 0 0 1020.4 1020.5 0.0
05/10:00pm 4.6 3.2 3.6 93 0.4 CALM 0 0 0 0 1020.6 1020.7 0.0
05/09:30pm 4.9 3.5 3.6 91 0.5 CALM 0 0 0 0 1020.7 1020.8 0.0
05/09:00pm 5.2 3.8 3.4 88 0.7 CALM 0 0 0 0 1020.7 1020.8 0.0
05/08:30pm 6.1 3.6 3.8 85 1.0 S 6 7 3 4 1020.6 1020.7 0.0
05/08:00pm 6.8 4.4 4.5 85 1.0 SE 6 7 3 4 1020.5 1020.6 0.0
05/07:30pm 7.2 4.6 4.3 82 1.3 SE 7 9 4 5 1020.4 1020.5 0.0
05/07:00pm 7.9 6.7 4.5 79 1.5 CALM 0 2 0 1 1020.6 1020.7 0.0
05/06:30pm 8.8 6.2 3.4 69 2.3 SSW 6 7 3 4 1020.7 1020.8 0.0
05/06:00pm 10.4 7.5 2.7 59 3.3 SSW 7 7 4 4 1020.3 1020.4 0.0
05/05:30pm 12.5 10.9 2.7 51 4.3 CALM 0 0 0 0 1019.9 1019.9 0.0
05/05:00pm 14.3 11.5 2.9 46 5.1 NE 7 9 4 5 1019.5 1019.5 0.0
05/04:30pm 15.0 12.3 3.5 46 5.3 E 7 11 4 6 1019.5 1019.5 0.0
05/04:00pm 15.2 12.3 1.7 40 5.9 ESE 6 9 3 5 1019.7 1019.7 0.0
05/03:30pm 15.4 12.3 1.2 38 6.2 SSW 7 13 4 7 1020.2 1020.3 0.0
05/03:00pm 15.4 12.6 2.2 41 5.9 SW 6 13 3 7 1020.4 1020.5 0.0
05/02:30pm 15.5 12.7 2.3 41 5.9 NW 6 11 3 6 1020.5 1020.6 0.0
05/02:00pm 14.7 11.6 1.3 40 5.8 SSW 7 11 4 6 1020.7 1020.8 0.0
05/01:30pm 14.3 11.5 2.2 44 5.4 SSW 6 9 3 5 1020.9 1021.0 0.0
05/01:00pm 14.6 11.7 2.8 45 5.3 WNW 7 11 4 6 1021.5 1021.6 0.0
05/12:30pm 14.4 12.4 2.3 44 5.4 NW 2 9 1 5 1022.4 1022.5 0.0
05/12:00pm 13.5 10.9 3.3 50 4.6 WSW 6 7 3 4 1022.5 1022.6 0.0
05/11:30am 13.4 11.2 3.2 50 4.6 NNE 4 9 2 5 1022.8 1022.9 0.0
05/11:00am 12.0 8.9 3.5 56 3.8 E 9 11 5 6 1022.8 1022.9 0.0
05/10:30am 11.0 8.4 4.0 62 3.1 E 7 11 4 6 1023.1 1023.2 0.0
05/10:00am 9.3 6.6 3.5 67 2.5 ESE 7 9 4 5 1023.4 1023.5 0.0
05/09:30am 7.9 5.2 3.6 74 1.9 SSE 7 11 4 6 1023.6 1023.7 0.0
05/09:00am 6.4 3.7 2.9 78 1.5 SSE 6 9 3 5 1023.5 1023.6 0.0
05/08:30am 4.6 1.7 2.5 86 0.9 SE 7 9 4 5 1023.3 1023.4 0.0
05/08:00am 3.3 0.4 2.6 95 0.3 SSE 7 9 4 5 1023.3 1023.4 0.0
05/07:30am 1.3 -1.9 0.7 96 0.2 SSW 7 7 4 4 1023.1 1023.2 0.0
05/07:00am 1.2 -1.8 0.6 96 0.2 SSE 6 7 3 4 1022.7 1022.8 0.0
05/06:30am 1.5 -1.5 0.9 96 0.2 SE 6 7 3 4 1022.3 1022.4 0.0
05/06:00am 1.3 -0.6 0.6 95 0.3 CALM 0 0 0 0 1022.0 1022.1 0.0
05/05:30am 1.6 -0.3 0.7 94 0.3 CALM 0 0 0 0 1022.0 1022.1 0.0
05/05:00am 2.1 0.3 1.2 94 0.3 CALM 0 0 0 0 1021.9 1022.0 0.0
05/04:30am 2.7 -0.1 1.8 94 0.4 S 6 7 3 4 1022.0 1022.1 0.0
05/04:00am 2.6 -0.5 1.6 93 0.4 ESE 7 9 4 5 1021.5 1021.6 0.0
05/03:30am 3.1 1.4 1.9 92 0.5 CALM 0 0 0 0 1021.7 1021.8 0.0
05/03:00am 3.6 2.0 2.4 92 0.5 CALM 0 0 0 0 1022.0 1022.1 0.0
05/02:30am 4.2 2.6 2.7 90 0.6 CALM 0 4 0 2 1021.8 1021.9 0.0
05/02:00am 4.3 1.4 2.7 89 0.6 ESE 7 9 4 5 1022.0 1022.1 0.0
05/01:30am 4.5 1.8 2.4 86 0.8 SE 6 7 3 4 1022.3 1022.4 0.0
05/01:00am 5.4 2.6 3.3 86 0.9 SSE 7 9 4 5 1022.8 1022.9 0.0
05/12:30am 5.8 3.5 3.0 82 1.2 S 4 6 2 3 1022.8 1022.9 0.0
05/12:00am 7.5 4.9 3.4 75 1.7 SSE 6 7 3 4 1023.1 1023.2 0.0
 
Date/Time
EST
Temp
°C
App
Temp
°C
Dew
Point
Rel
Hum
%
Delta-T
°C
Wind Press
QNH
hPa
Press
MSL
hPa
Rain
since 9 am
mm
Dir
 
Spd
km/h
Gust
km/h
Spd
kts
Gust
kts
04/11:30pm 8.0 4.5 3.7 74 1.9 ESE 11 13 6 7 1022.7 1022.8 0.0
04/11:00pm 7.1 4.3 3.2 76 1.6 E 7 11 4 6 1022.9 1023.0 0.0
04/10:30pm 7.3 4.2 3.5 77 1.6 E 9 11 5 6 1022.8 1022.9 0.0
04/10:00pm 7.4 4.3 3.6 77 1.6 SSE 9 11 5 6 1023.1 1023.2 0.0
04/09:30pm 7.5 5.2 5.0 84 1.1 S 6 11 3 6 1023.3 1023.4 0.0
04/09:00pm 7.6 5.5 5.6 87 0.9 SW 6 7 3 4 1023.3 1023.4 0.0
04/08:30pm 8.2 6.1 5.8 85 1.1 WSW 6 7 3 4 1023.4 1023.5 0.0
04/08:00pm 8.7 7.7 5.6 81 1.4 CALM 0 0 0 0 1023.4 1023.5 0.0
04/07:30pm 9.2 8.4 6.6 84 1.2 CALM 0 0 0 0 1023.1 1023.2 0.0
04/07:00pm 9.6 8.8 6.5 81 1.4 CALM 0 0 0 0 1022.9 1023.0 0.0
04/06:30pm 10.0 9.2 6.5 79 1.6 CALM 0 0 0 0 1022.8 1022.9 0.0
04/06:00pm 10.6 9.6 5.8 72 2.2 CALM 0 0 0 0 1022.6 1022.7 0.0
04/05:30pm 11.3 9.0 4.7 64 3.0 E 6 6 3 3 1022.4 1022.5 0.0
04/05:00pm 12.1 9.5 4.1 58 3.6 ESE 7 9 4 5 1022.3 1022.4 0.0
04/04:30pm 13.0 10.1 2.5 49 4.6 SSE 7 9 4 5 1022.4 1022.5 0.0
04/04:00pm 13.6 9.8 1.6 44 5.2 SSE 11 13 6 7 1022.3 1022.4 0.0
04/03:30pm 13.9 10.2 2.5 46 5.1 SSE 11 15 6 8 1022.5 1022.6 0.0
04/03:00pm 13.7 10.3 1.7 44 5.2 SW 9 17 5 9 1022.5 1022.6 0.0
04/02:30pm 13.5 10.1 2.1 46 5.0 S 9 13 5 7 1022.7 1022.8 0.0
04/02:00pm 13.4 10.6 2.3 47 4.9 W 6 9 3 5 1022.9 1023.0 0.0
04/01:30pm 13.0 10.3 2.5 49 4.6 S 6 11 3 6 1023.2 1023.3 0.0
04/01:00pm 13.1 10.4 2.4 48 4.7 NNW 6 11 3 6 1023.5 1023.6 0.0

Other Formats:

Comma delimited format used in spreadsheet applications
http://www.bom.gov.au/fwo/IDN60801/IDN60801.94703.axf

JavaScript Object Notation format (JSON) in row-major order
http://www.bom.gov.au/fwo/IDN60801/IDN60801.94703.json